createdAt,value
2023-04-16T00:00:24.823Z,1.04
2023-04-16T00:01:24.970Z,1.04
2023-04-16T00:02:25.228Z,1.04
2023-04-16T00:03:25.310Z,1.04
2023-04-16T00:04:25.500Z,1.04
2023-04-16T00:05:25.535Z,1.04
2023-04-16T00:06:25.718Z,1.04
2023-04-16T00:07:25.843Z,1.04
2023-04-16T00:08:25.952Z,1.04
2023-04-16T00:09:26.089Z,1.04
2023-04-16T00:10:26.240Z,1.04
2023-04-16T00:11:26.412Z,1.04
2023-04-16T00:12:26.535Z,1.04
2023-04-16T00:13:26.697Z,1.04
2023-04-16T00:14:27.356Z,1.04
2023-04-16T00:15:26.987Z,1.04
2023-04-16T00:16:27.164Z,1.04
2023-04-16T00:17:27.329Z,1.04
2023-04-16T00:18:27.456Z,1.04
2023-04-16T00:19:27.560Z,1.04
2023-04-16T00:20:27.714Z,1.04
2023-04-16T00:21:27.865Z,1.04
2023-04-16T00:22:28.035Z,1.04
2023-04-16T00:23:28.165Z,1.04
2023-04-16T00:24:28.316Z,1.04
2023-04-16T00:25:28.464Z,1.04
2023-04-16T00:26:28.623Z,1.04
2023-04-16T00:27:28.779Z,1.04
2023-04-16T00:28:28.922Z,1.04
2023-04-16T00:29:29.611Z,1.04
2023-04-16T00:30:29.172Z,1.04
2023-04-16T00:31:29.382Z,1.04
2023-04-16T00:32:29.515Z,1.04
2023-04-16T00:33:29.640Z,1.04
2023-04-16T00:34:29.733Z,1.04
2023-04-16T00:35:29.884Z,1.04
2023-04-16T00:36:29.997Z,1.04
2023-04-16T00:37:30.129Z,1.04
2023-04-16T00:38:30.340Z,1.04
2023-04-16T00:39:30.441Z,1.04
2023-04-16T00:40:30.634Z,1.04
2023-04-16T00:41:30.733Z,1.04
2023-04-16T00:42:30.895Z,1.04
2023-04-16T00:43:30.995Z,1.04
2023-04-16T00:44:31.566Z,1.04
2023-04-16T00:45:31.233Z,1.04
2023-04-16T00:46:32.292Z,1.04
2023-04-16T00:47:31.500Z,1.04
2023-04-16T00:48:31.626Z,1.04
2023-04-16T00:49:31.741Z,1.04
2023-04-16T00:50:31.869Z,1.04
2023-04-16T00:51:31.965Z,1.04
2023-04-16T00:52:32.154Z,1.04
2023-04-16T00:53:32.303Z,1.04
2023-04-16T00:54:32.447Z,1.04
2023-04-16T00:55:32.604Z,1.04
2023-04-16T00:56:32.779Z,1.04
2023-04-16T00:57:32.917Z,1.04
2023-04-16T00:58:33.074Z,1.04
2023-04-16T00:59:33.652Z,1.04
2023-04-16T01:00:33.366Z,1.04
2023-04-16T01:01:33.610Z,1.04
2023-04-16T01:02:33.787Z,1.04
2023-04-16T01:03:33.887Z,1.04
2023-04-16T01:04:34.014Z,1.04
2023-04-16T01:05:34.117Z,1.04
2023-04-16T01:06:34.242Z,1.04
2023-04-16T01:07:34.399Z,1.04
2023-04-16T01:08:34.529Z,1.04
2023-04-16T01:09:34.676Z,1.04
2023-04-16T01:10:34.827Z,1.04
2023-04-16T01:11:34.933Z,1.04
2023-04-16T01:12:35.082Z,1.04
2023-04-16T01:13:35.251Z,1.04
2023-04-16T01:14:35.880Z,1.04
2023-04-16T01:15:35.572Z,1.04
2023-04-16T01:16:35.691Z,1.04
2023-04-16T01:17:35.879Z,1.04
2023-04-16T01:18:35.994Z,1.04
2023-04-16T01:19:36.185Z,1.04
2023-04-16T01:20:36.308Z,1.04
2023-04-16T01:21:36.451Z,1.04
2023-04-16T01:22:36.607Z,1.04
2023-04-16T01:23:36.762Z,1.04
2023-04-16T01:24:36.942Z,1.04
2023-04-16T01:25:37.052Z,1.04
2023-04-16T01:26:37.215Z,1.04
2023-04-16T01:27:37.380Z,1.04
2023-04-16T01:28:37.509Z,1.04
2023-04-16T01:29:38.183Z,1.04
2023-04-16T01:30:37.817Z,1.04
2023-04-16T01:31:38.012Z,1.04
2023-04-16T01:32:38.144Z,1.04
2023-04-16T01:33:38.265Z,1.04
2023-04-16T01:34:38.425Z,1.04
2023-04-16T01:35:38.577Z,1.04
2023-04-16T01:36:38.725Z,1.04
2023-04-16T01:37:38.873Z,1.04
2023-04-16T01:38:39.020Z,1.04
2023-04-16T01:39:39.179Z,1.04
2023-04-16T01:40:39.294Z,1.04
2023-04-16T01:41:39.465Z,1.04
2023-04-16T01:42:39.883Z,1.04
2023-04-16T01:43:40.499Z,1.04
2023-04-16T01:44:40.284Z,1.04
2023-04-16T01:45:39.994Z,1.04
2023-04-16T01:46:40.619Z,1.04
2023-04-16T01:47:40.734Z,1.04
2023-04-16T01:48:40.442Z,1.04
2023-04-16T01:49:40.600Z,1.04
2023-04-16T01:50:40.695Z,1.04
2023-04-16T01:51:40.794Z,1.04
2023-04-16T01:52:40.966Z,1.04
2023-04-16T01:53:41.090Z,1.04
2023-04-16T01:54:41.195Z,1.04
2023-04-16T01:55:41.344Z,1.04
2023-04-16T01:56:41.444Z,1.04
2023-04-16T01:57:41.603Z,1.04
2023-04-16T01:58:41.770Z,1.04
2023-04-16T01:59:42.286Z,1.04
2023-04-16T02:00:42.089Z,1.04
2023-04-16T02:01:42.218Z,1.04
2023-04-16T02:02:42.924Z,1.04
2023-04-16T02:03:43.006Z,1.04
2023-04-16T02:04:42.672Z,1.04
2023-04-16T02:05:42.815Z,1.04
2023-04-16T02:06:42.955Z,1.04
2023-04-16T02:07:43.087Z,1.04
2023-04-16T02:08:43.229Z,1.04
2023-04-16T02:09:43.342Z,1.04
2023-04-16T02:10:43.424Z,1.04
2023-04-16T02:11:43.582Z,1.04
2023-04-16T02:12:43.736Z,1.04
2023-04-16T02:13:43.872Z,1.04
2023-04-16T02:14:44.569Z,1.04
2023-04-16T02:15:44.183Z,1.04
2023-04-16T02:16:44.380Z,1.04
2023-04-16T02:17:44.511Z,1.04
2023-04-16T02:18:44.648Z,1.04
2023-04-16T02:19:44.808Z,1.04
2023-04-16T02:20:44.951Z,1.04
2023-04-16T02:21:45.087Z,1.04
2023-04-16T02:22:45.262Z,1.04
2023-04-16T02:23:45.389Z,1.04
2023-04-16T02:24:45.561Z,1.04
2023-04-16T02:25:45.698Z,1.04
2023-04-16T02:26:45.848Z,1.04
2023-04-16T02:27:46.018Z,1.04
2023-04-16T02:28:46.149Z,1.04
2023-04-16T02:29:46.798Z,1.04
2023-04-16T02:30:46.454Z,1.04
2023-04-16T02:31:46.618Z,1.04
2023-04-16T02:32:46.791Z,1.04
2023-04-16T02:33:46.868Z,1.04
2023-04-16T02:34:46.988Z,1.04
2023-04-16T02:35:47.160Z,1.04
2023-04-16T02:36:47.264Z,1.04
2023-04-16T02:37:47.416Z,1.04
2023-04-16T02:38:47.560Z,1.04
2023-04-16T02:39:47.705Z,1.04
2023-04-16T02:40:47.862Z,1.04
2023-04-16T02:41:47.986Z,1.04
2023-04-16T02:42:48.127Z,1.04
2023-04-16T02:43:48.297Z,1.04
2023-04-16T02:44:48.926Z,1.04
2023-04-16T02:45:48.584Z,1.04
2023-04-16T02:46:48.678Z,1.04
2023-04-16T02:47:48.872Z,1.04
2023-04-16T02:48:48.980Z,1.04
2023-04-16T02:49:49.125Z,1.04
2023-04-16T02:50:49.276Z,1.04
2023-04-16T02:51:49.444Z,1.04
2023-04-16T02:52:49.605Z,1.04
2023-04-16T02:53:49.742Z,1.04
2023-04-16T02:54:49.838Z,1.04
2023-04-16T02:55:49.941Z,1.04
2023-04-16T02:56:50.091Z,1.04
2023-04-16T02:57:50.237Z,1.04
2023-04-16T02:58:50.386Z,1.04
2023-04-16T02:59:50.942Z,1.04
2023-04-16T03:00:50.662Z,1.04
2023-04-16T03:01:50.918Z,1.04
2023-04-16T03:02:51.189Z,1.04
2023-04-16T03:03:51.145Z,1.04
2023-04-16T03:04:51.268Z,1.04
2023-04-16T03:05:51.414Z,1.04
2023-04-16T03:06:51.562Z,1.04
2023-04-16T03:07:51.692Z,1.04
2023-04-16T03:08:51.885Z,1.04
2023-04-16T03:09:52.014Z,1.04
2023-04-16T03:10:52.174Z,1.04
2023-04-16T03:11:52.315Z,1.04
2023-04-16T03:12:52.452Z,1.04
2023-04-16T03:13:52.628Z,1.04
2023-04-16T03:14:53.256Z,1.04
2023-04-16T03:15:52.909Z,1.04
2023-04-16T03:16:53.033Z,1.04
2023-04-16T03:17:53.211Z,1.04
2023-04-16T03:18:53.268Z,1.04
2023-04-16T03:19:53.420Z,1.04
2023-04-16T03:20:53.575Z,1.04
2023-04-16T03:21:53.735Z,1.04
2023-04-16T03:22:53.883Z,1.04
2023-04-16T03:23:54.026Z,1.04
2023-04-16T03:24:54.179Z,1.04
2023-04-16T03:25:54.350Z,1.04
2023-04-16T03:26:54.496Z,1.04
2023-04-16T03:27:54.592Z,1.04
2023-04-16T03:28:54.746Z,1.04
2023-04-16T03:29:55.379Z,1.04
2023-04-16T03:30:55.102Z,1.04
2023-04-16T03:31:55.191Z,1.04
2023-04-16T03:32:55.407Z,1.04
2023-04-16T03:33:55.496Z,1.04
2023-04-16T03:34:55.602Z,1.04
2023-04-16T03:35:55.738Z,1.04
2023-04-16T03:36:55.903Z,1.04
2023-04-16T03:37:56.035Z,1.04
2023-04-16T03:38:56.161Z,2
2023-04-16T03:39:56.313Z,2
2023-04-16T03:40:56.477Z,2
2023-04-16T03:41:56.610Z,2
2023-04-16T03:42:56.771Z,2
2023-04-16T03:43:56.926Z,3.04
2023-04-16T03:44:57.506Z,3.04
2023-04-16T03:45:57.227Z,3.04
2023-04-16T03:46:57.391Z,4
2023-04-16T03:47:57.584Z,5.04
2023-04-16T03:48:57.671Z,5.04
2023-04-16T03:49:57.814Z,6
2023-04-16T03:50:57.912Z,7.04
2023-04-16T03:51:58.085Z,9.04
2023-04-16T03:52:58.243Z,10
2023-04-16T03:53:58.376Z,11.04
2023-04-16T03:54:58.539Z,13.04
2023-04-16T03:55:58.709Z,15.04
2023-04-16T03:56:58.861Z,17.04
2023-04-16T03:57:58.996Z,20
2023-04-16T03:58:59.130Z,22
2023-04-16T03:59:59.771Z,25.04
2023-04-16T04:00:59.448Z,28
2023-04-16T04:01:59.577Z,31.04
2023-04-16T04:02:59.965Z,34
2023-04-16T04:04:00.033Z,37.04
2023-04-16T04:05:00.043Z,42
2023-04-16T04:06:00.172Z,49.04
2023-04-16T04:07:00.325Z,55.04
2023-04-16T04:08:00.456Z,61.04
2023-04-16T04:09:00.548Z,67.04
2023-04-16T04:10:00.692Z,74
2023-04-16T04:11:00.811Z,77.04
2023-04-16T04:12:00.953Z,86
2023-04-16T04:13:01.103Z,109.04
2023-04-16T04:14:01.282Z,125.04
2023-04-16T04:15:01.922Z,137.04
2023-04-16T04:16:01.539Z,150
2023-04-16T04:17:01.653Z,169.12
2023-04-16T04:18:01.798Z,189.12
2023-04-16T04:19:01.904Z,206.08
2023-04-16T04:20:02.248Z,224
2023-04-16T04:21:02.219Z,242.08
2023-04-16T04:22:02.371Z,259.04
2023-04-16T04:23:02.474Z,282.08
2023-04-16T04:24:02.622Z,299.04
2023-04-16T04:25:02.791Z,316
2023-04-16T04:26:02.981Z,337.28
2023-04-16T04:27:03.084Z,358.08
2023-04-16T04:28:03.235Z,389.12
2023-04-16T04:29:03.396Z,441.28
2023-04-16T04:30:04.070Z,483.2
2023-04-16T04:31:03.760Z,522.24
2023-04-16T04:32:03.839Z,557.12
2023-04-16T04:33:04.031Z,603.2
2023-04-16T04:34:04.095Z,638.08
2023-04-16T04:35:04.234Z,667.52
2023-04-16T04:36:04.394Z,702.08
2023-04-16T04:37:04.562Z,734.08
2023-04-16T04:38:04.700Z,777.6
2023-04-16T04:39:04.859Z,837.12
2023-04-16T04:40:04.997Z,885.12
2023-04-16T04:41:05.140Z,931.2
2023-04-16T04:42:05.309Z,968.32
2023-04-16T04:43:05.385Z,1004.16
2023-04-16T04:44:05.490Z,1036.16
2023-04-16T04:45:05.634Z,1087.36
2023-04-16T04:46:05.814Z,1103.36
2023-04-16T04:47:05.896Z,1171.2
2023-04-16T04:48:06.071Z,1199.36
2023-04-16T04:49:06.190Z,1216
2023-04-16T04:50:06.351Z,1227.52
2023-04-16T04:51:06.510Z,1266.56
2023-04-16T04:52:06.641Z,1361.92
2023-04-16T04:53:06.815Z,1415.68
2023-04-16T04:54:06.968Z,1438.72
2023-04-16T04:55:07.090Z,1472
2023-04-16T04:57:08.573Z,1527.04
2023-04-16T04:59:08.338Z,1589.76
2023-04-16T05:00:08.380Z,1623.04
2023-04-16T05:02:08.223Z,1731.84
2023-04-16T05:03:08.410Z,1808.64
2023-04-16T05:04:08.531Z,1880.32
2023-04-16T05:05:08.742Z,1948.16
2023-04-16T05:06:08.793Z,2022.4
2023-04-16T05:07:08.935Z,2094.08
2023-04-16T05:08:09.082Z,2179.84
2023-04-16T05:09:09.356Z,2333.44
2023-04-16T05:10:09.342Z,2455.04
2023-04-16T05:11:09.513Z,2590.72
2023-04-16T05:12:09.653Z,2762.24
2023-04-16T05:13:09.789Z,2895.36
2023-04-16T05:14:09.967Z,3051.52
2023-04-16T05:15:10.564Z,3182.08
2023-04-16T05:16:10.212Z,3297.28
2023-04-16T05:17:10.306Z,3435.52
2023-04-16T05:18:10.482Z,3507.2
2023-04-16T05:19:10.722Z,3543.04
2023-04-16T05:20:10.717Z,3530.24
2023-04-16T05:21:10.877Z,3461.12
2023-04-16T05:22:11.009Z,3366.4
2023-04-16T05:23:11.122Z,3333.12
2023-04-16T05:24:12.554Z,3392
2023-04-16T05:25:11.423Z,3601.92
2023-04-16T05:26:11.556Z,3755.52
2023-04-16T05:27:12.163Z,3860.48
2023-04-16T05:28:11.772Z,3952.64
2023-04-16T05:29:12.093Z,4026.88
2023-04-16T05:30:12.570Z,4134.4
2023-04-16T05:31:12.190Z,4229.12
2023-04-16T05:32:12.328Z,4313.6
2023-04-16T05:33:12.481Z,4375.04
2023-04-16T05:34:12.672Z,4431.36
2023-04-16T05:35:13.544Z,4454.4
2023-04-16T05:36:12.925Z,4500.48
2023-04-16T05:37:13.049Z,4544
2023-04-16T05:38:13.220Z,4595.2
2023-04-16T05:39:13.327Z,4677.12
2023-04-16T05:40:13.440Z,4769.28
2023-04-16T05:41:13.616Z,4861.44
2023-04-16T05:42:14.212Z,4989.44
2023-04-16T05:43:13.855Z,5079.04
2023-04-16T05:44:13.990Z,5181.44
2023-04-16T05:45:14.582Z,5329.92
2023-04-16T05:46:14.357Z,5457.92
2023-04-16T05:47:14.455Z,5626.88
2023-04-16T05:48:14.600Z,5765.12
2023-04-16T05:49:14.745Z,5923.84
2023-04-16T05:50:14.911Z,6051.84
2023-04-16T05:51:15.021Z,6164.48
2023-04-16T05:52:15.159Z,6251.52
2023-04-16T05:53:15.301Z,6359.04
2023-04-16T05:54:15.446Z,6435.84
2023-04-16T05:55:15.647Z,6574.08
2023-04-16T05:56:15.764Z,6707.2
2023-04-16T05:57:15.898Z,6830.08
2023-04-16T05:58:16.093Z,6993.92
2023-04-16T05:59:16.219Z,7121.92
2023-04-16T06:00:16.855Z,7208.96
2023-04-16T06:01:16.549Z,7316.48
2023-04-16T06:02:16.692Z,7383.04
2023-04-16T06:03:17.033Z,7485.44
2023-04-16T06:04:17.003Z,7567.36
2023-04-16T06:05:17.046Z,7654.4
2023-04-16T06:06:17.136Z,7720.96
2023-04-16T06:07:17.347Z,7777.28
2023-04-16T06:08:17.448Z,7843.84
2023-04-16T06:09:17.576Z,7925.76
2023-04-16T06:10:18.234Z,8028.16
2023-04-16T06:11:17.836Z,8186.88
2023-04-16T06:12:17.964Z,8330.24
2023-04-16T06:13:18.076Z,8488.96
2023-04-16T06:14:18.239Z,8693.76
2023-04-16T06:15:18.909Z,8872.96
2023-04-16T06:16:18.581Z,9021.439
2023-04-16T06:17:18.650Z,9159.68
2023-04-16T06:18:18.717Z,9267.2
2023-04-16T06:19:18.893Z,9400.319
2023-04-16T06:20:18.977Z,9487.359
2023-04-16T06:21:19.161Z,9569.28
2023-04-16T06:22:19.265Z,9671.68
2023-04-16T06:23:19.419Z,9763.84
2023-04-16T06:24:19.566Z,9871.359
2023-04-16T06:25:19.763Z,10014.72
2023-04-16T06:27:20.463Z,10342.399
2023-04-16T06:28:20.207Z,10526.72
2023-04-16T06:29:20.466Z,10752
2023-04-16T06:30:20.440Z,10926.08
2023-04-16T06:31:20.614Z,11223.04
2023-04-16T06:32:20.761Z,11448.319
2023-04-16T06:33:20.879Z,11653.12
2023-04-16T06:34:20.982Z,11929.6
2023-04-16T06:35:21.130Z,12206.08
2023-04-16T06:36:21.263Z,12544
2023-04-16T06:37:21.413Z,12769.279
2023-04-16T06:38:21.528Z,12953.6
2023-04-16T06:39:21.694Z,14069.76
2023-04-16T06:40:21.817Z,14458.88
2023-04-16T06:41:21.979Z,14725.12
2023-04-16T06:42:22.125Z,15063.04
2023-04-16T06:43:22.303Z,15400.96
2023-04-16T06:44:22.378Z,15697.92
2023-04-16T06:45:23.052Z,15964.159
2023-04-16T06:46:22.761Z,16281.6
2023-04-16T06:47:22.833Z,16691.2
2023-04-16T06:48:22.942Z,17070.08
2023-04-16T06:49:23.183Z,17387.52
2023-04-16T06:50:23.262Z,18268.16
2023-04-16T06:51:23.393Z,16977.92
2023-04-16T06:52:23.488Z,16691.2
2023-04-16T06:53:23.656Z,16793.6
2023-04-16T06:54:23.805Z,17070.08
2023-04-16T06:55:23.950Z,16977.92
2023-04-16T06:56:24.093Z,16752.64
2023-04-16T06:57:24.249Z,16701.44
2023-04-16T06:58:24.394Z,16640
2023-04-16T06:59:24.561Z,16619.52
2023-04-16T07:00:24.708Z,16527.36
2023-04-16T07:01:24.895Z,16640
2023-04-16T07:02:25.092Z,16875.52
2023-04-16T07:03:25.234Z,17141.76
2023-04-16T07:04:25.296Z,17469.44
2023-04-16T07:05:25.435Z,17735.68
2023-04-16T07:06:25.575Z,18012.16
2023-04-16T07:07:25.729Z,18401.28
2023-04-16T07:08:25.883Z,18882.56
2023-04-16T07:09:26.022Z,19435.52
2023-04-16T07:10:26.167Z,19650.56
2023-04-16T07:11:26.272Z,19886.08
2023-04-16T07:12:26.369Z,19916.8
2023-04-16T07:13:26.521Z,20213.76
2023-04-16T07:14:27.172Z,20500.48
2023-04-16T07:15:26.757Z,20551.68
2023-04-16T07:16:26.949Z,20531.2
2023-04-16T07:17:27.067Z,20869.12
2023-04-16T07:18:27.087Z,20838.4
2023-04-16T07:19:27.235Z,21094.4
2023-04-16T07:20:27.331Z,21258.24
2023-04-16T07:21:27.479Z,21114.88
2023-04-16T07:22:27.642Z,20961.28
2023-04-16T07:23:27.799Z,20838.4
2023-04-16T07:24:27.948Z,20899.84
2023-04-16T07:25:28.094Z,21401.6
2023-04-16T07:26:28.244Z,21708.8
2023-04-16T07:27:28.393Z,22036.48
2023-04-16T07:28:28.548Z,22016
2023-04-16T07:29:29.291Z,21667.84
2023-04-16T07:30:28.846Z,21299.2
2023-04-16T07:31:29.021Z,21032.96
2023-04-16T07:32:29.186Z,21012.48
2023-04-16T07:33:29.314Z,20224
2023-04-16T07:34:29.468Z,19906.56
2023-04-16T07:35:29.607Z,20008.96
2023-04-16T07:36:29.779Z,20346.88
2023-04-16T07:37:29.924Z,20879.36
2023-04-16T07:38:30.073Z,20869.12
2023-04-16T07:39:30.231Z,20346.88
2023-04-16T07:40:30.364Z,19968
2023-04-16T07:41:30.532Z,19804.16
2023-04-16T07:42:30.670Z,19609.6
2023-04-16T07:43:30.795Z,19517.44
2023-04-16T07:44:31.370Z,19476.48
2023-04-16T07:45:31.070Z,19517.44
2023-04-16T07:46:43.461Z,19619.84
2023-04-16T07:47:31.320Z,19681.28
2023-04-16T07:48:31.419Z,19589.12
2023-04-16T07:49:31.665Z,19466.24
2023-04-16T07:50:31.713Z,19363.84
2023-04-16T07:51:31.813Z,19230.72
2023-04-16T07:52:31.960Z,19240.96
2023-04-16T07:53:32.115Z,19415.04
2023-04-16T07:54:32.879Z,19599.36
2023-04-16T07:55:32.433Z,19916.8
2023-04-16T07:56:32.581Z,20316.16
2023-04-16T07:57:32.744Z,20643.84
2023-04-16T07:58:32.915Z,20992
2023-04-16T07:59:33.577Z,21258.24
2023-04-16T08:00:33.201Z,21422.08
2023-04-16T08:01:33.298Z,21565.44
2023-04-16T08:02:33.552Z,21749.76
2023-04-16T08:03:33.802Z,21995.52
2023-04-16T08:04:33.812Z,22241.28
2023-04-16T08:05:33.836Z,22507.52
2023-04-16T08:06:34.005Z,22896.64
2023-04-16T08:07:34.859Z,23203.84
2023-04-16T08:08:34.249Z,23613.44
2023-04-16T08:09:34.409Z,23818.24
2023-04-16T08:10:34.570Z,23859.2
2023-04-16T08:11:34.704Z,23756.8
2023-04-16T08:12:34.866Z,23654.4
2023-04-16T08:13:35.024Z,23592.96
2023-04-16T08:14:35.661Z,23531.52
2023-04-16T08:15:35.300Z,23470.08
2023-04-16T08:16:35.449Z,23326.72
2023-04-16T08:17:35.626Z,23040
2023-04-16T08:18:35.730Z,22855.68
2023-04-16T08:19:35.882Z,22773.76
2023-04-16T08:20:36.023Z,22917.12
2023-04-16T08:21:36.179Z,23142.4
2023-04-16T08:22:36.334Z,23244.8
2023-04-16T08:23:36.476Z,23285.76
2023-04-16T08:24:36.633Z,23224.32
2023-04-16T08:25:36.790Z,23162.88
2023-04-16T08:26:36.894Z,23142.4
2023-04-16T08:27:37.053Z,23080.96
2023-04-16T08:28:37.204Z,22753.28
2023-04-16T08:29:37.965Z,22589.44
2023-04-16T08:30:37.494Z,22548.48
2023-04-16T08:31:37.839Z,22466.56
2023-04-16T08:32:37.855Z,22609.92
2023-04-16T08:33:37.937Z,23121.92
2023-04-16T08:34:38.102Z,23654.4
2023-04-16T08:35:38.252Z,24166.4
2023-04-16T08:36:38.401Z,24657.92
2023-04-16T08:37:38.556Z,24924.16
2023-04-16T08:38:38.697Z,25128.96
2023-04-16T08:39:38.877Z,25149.44
2023-04-16T08:40:39.013Z,25190.4
2023-04-16T08:41:39.121Z,25313.28
2023-04-16T08:42:39.280Z,25518.08
2023-04-16T08:43:39.406Z,25784.32
2023-04-16T08:44:40.179Z,26071.04
2023-04-16T08:45:39.716Z,26255.36
2023-04-16T08:46:39.874Z,26480.64
2023-04-16T08:47:40.069Z,26787.84
2023-04-16T08:48:40.136Z,27156.48
2023-04-16T08:49:40.270Z,27463.68
2023-04-16T08:50:40.375Z,27791.36
2023-04-16T08:51:40.528Z,28262.4
2023-04-16T08:52:40.661Z,28569.6
2023-04-16T08:53:40.844Z,28958.72
2023-04-16T08:54:40.965Z,29593.6
2023-04-16T08:55:41.073Z,29900.8
2023-04-16T08:56:42.931Z,30474.24
2023-04-16T08:57:41.322Z,30822.4
2023-04-16T08:58:41.446Z,31211.52
2023-04-16T08:59:42.284Z,31866.88
2023-04-16T09:00:41.776Z,32460.8
2023-04-16T09:01:41.985Z,32972.8
2023-04-16T09:02:42.163Z,33607.68
2023-04-16T09:03:42.309Z,34467.84
2023-04-16T09:04:42.359Z,33505.28
2023-04-16T09:05:42.449Z,33034.24
2023-04-16T09:06:42.589Z,33341.44
2023-04-16T09:07:42.698Z,34447.36
2023-04-16T09:08:42.840Z,35676.16
2023-04-16T09:09:42.994Z,36106.24
2023-04-16T09:10:43.091Z,36884.48
2023-04-16T09:11:43.255Z,37888
2023-04-16T09:12:43.417Z,39075.84
2023-04-16T09:13:43.551Z,39976.96
2023-04-16T09:14:44.243Z,40837.12
2023-04-16T09:15:43.823Z,42024.96
2023-04-16T09:16:43.998Z,41062.4
2023-04-16T09:17:44.255Z,40796.16
2023-04-16T09:18:44.269Z,42926.08
2023-04-16T09:19:44.368Z,42926.08
2023-04-16T09:20:44.505Z,44646.4
2023-04-16T09:21:44.671Z,43950.08
2023-04-16T09:22:44.847Z,47431.68
2023-04-16T09:23:44.993Z,44769.28
2023-04-16T09:24:45.126Z,44564.48
2023-04-16T09:25:45.275Z,43950.08
2023-04-16T09:26:45.429Z,42557.44
2023-04-16T09:27:45.570Z,42024.96
2023-04-16T09:28:45.718Z,41103.36
2023-04-16T09:29:46.423Z,39628.8
2023-04-16T09:30:46.044Z,42311.68
2023-04-16T09:31:46.204Z,44032
2023-04-16T09:32:46.354Z,42516.48
2023-04-16T09:33:46.481Z,43294.72
2023-04-16T09:34:46.631Z,43581.44
2023-04-16T09:35:46.798Z,41697.28
2023-04-16T09:36:46.936Z,42393.6
2023-04-16T09:37:47.094Z,60579.84
2023-04-16T09:38:47.250Z,47882.24
2023-04-16T09:39:47.390Z,53166.08
2023-04-16T09:40:47.741Z,52961.28
2023-04-16T09:41:47.701Z,56074.24
2023-04-16T09:42:47.799Z,48619.52
2023-04-16T09:43:47.937Z,45629.44
2023-04-16T09:44:48.553Z,45629.44
2023-04-16T09:45:48.293Z,47104
2023-04-16T09:46:48.304Z,44236.8
2023-04-16T09:47:48.474Z,41902.08
2023-04-16T09:48:48.615Z,41799.68
2023-04-16T09:49:48.759Z,39342.08
2023-04-16T09:50:48.932Z,37396.48
2023-04-16T09:51:49.062Z,35983.36
2023-04-16T09:52:49.250Z,34590.72
2023-04-16T09:53:49.359Z,33095.68
2023-04-16T09:54:49.462Z,32010.24
2023-04-16T09:55:49.634Z,30883.84
2023-04-16T09:56:50.339Z,29491.2
2023-04-16T09:57:49.876Z,28344.32
2023-04-16T09:58:49.991Z,26480.64
2023-04-16T09:59:50.701Z,24432.64
2023-04-16T10:00:50.269Z,23531.52
2023-04-16T10:01:50.569Z,22753.28
2023-04-16T10:02:50.847Z,22691.84
2023-04-16T10:03:50.919Z,23449.6
2023-04-16T10:04:50.872Z,24494.08
2023-04-16T10:05:50.990Z,21606.4
2023-04-16T10:06:51.172Z,19640.32
2023-04-16T10:07:51.287Z,19138.56
2023-04-16T10:08:51.452Z,18534.4
2023-04-16T10:09:51.577Z,17971.2
2023-04-16T10:10:51.738Z,17213.44
2023-04-16T10:11:51.904Z,17244.16
2023-04-16T10:12:52.052Z,17530.88
2023-04-16T10:13:52.194Z,18411.52
2023-04-16T10:14:52.822Z,18708.48
2023-04-16T10:15:52.495Z,18401.28
2023-04-16T10:16:52.714Z,18851.84
2023-04-16T10:17:52.919Z,19322.88
2023-04-16T10:18:52.915Z,18534.4
2023-04-16T10:19:53.055Z,18606.08
2023-04-16T10:20:53.208Z,19189.76
2023-04-16T10:21:53.363Z,18739.2
2023-04-16T10:22:53.514Z,18954.24
2023-04-16T10:23:53.670Z,18780.16
2023-04-16T10:24:53.765Z,17469.44
2023-04-16T10:25:55.145Z,16599.04
2023-04-16T10:26:54.028Z,15902.72
2023-04-16T10:27:54.174Z,15124.479
2023-04-16T10:28:54.371Z,14295.04
2023-04-16T10:29:54.956Z,13557.76
2023-04-16T10:30:54.659Z,12697.6
2023-04-16T10:31:54.727Z,12359.68
2023-04-16T10:32:54.900Z,12339.2
2023-04-16T10:33:55.036Z,12349.439
2023-04-16T10:34:55.199Z,12656.64
2023-04-16T10:36:06.912Z,12820.479
2023-04-16T10:36:55.464Z,13056
2023-04-16T10:37:55.571Z,13506.56
2023-04-16T10:38:55.728Z,13762.56
2023-04-16T10:39:55.886Z,14028.8
2023-04-16T10:40:56.048Z,14336
2023-04-16T10:41:56.225Z,14458.88
2023-04-16T10:42:56.358Z,14571.52
2023-04-16T10:43:56.521Z,14929.92
2023-04-16T10:44:57.144Z,15032.319
2023-04-16T10:45:56.809Z,15237.12
2023-04-16T10:46:57.874Z,16414.72
2023-04-16T10:47:57.197Z,17879.04
2023-04-16T10:48:57.261Z,19138.56
2023-04-16T10:49:57.430Z,20838.4
2023-04-16T10:50:57.595Z,22425.6
2023-04-16T10:51:57.736Z,23429.12
2023-04-16T10:52:57.858Z,23449.6
2023-04-16T10:53:58.014Z,23982.08
2023-04-16T10:54:58.157Z,24186.88
2023-04-16T10:55:58.308Z,24268.8
2023-04-16T10:56:58.419Z,24412.16
2023-04-16T10:57:58.586Z,25620.48
2023-04-16T10:58:58.734Z,26562.56
2023-04-16T10:59:59.468Z,27688.96
2023-04-16T11:00:59.010Z,29265.92
2023-04-16T11:01:59.223Z,30453.76
2023-04-16T11:02:59.515Z,32788.48
2023-04-16T11:03:59.513Z,33812.48
2023-04-16T11:04:59.704Z,35573.76
2023-04-16T11:05:59.721Z,35225.6
2023-04-16T11:06:59.873Z,36700.16
2023-04-16T11:08:00.037Z,38707.2
2023-04-16T11:09:00.235Z,37376
2023-04-16T11:10:00.392Z,35860.48
2023-04-16T11:11:00.421Z,33361.92
2023-04-16T11:12:00.577Z,32051.2
2023-04-16T11:13:00.731Z,31313.92
2023-04-16T11:14:00.844Z,31211.52
2023-04-16T11:15:01.581Z,31027.2
2023-04-16T11:16:01.164Z,30801.92
2023-04-16T11:17:01.243Z,31580.16
2023-04-16T11:18:01.424Z,32563.2
2023-04-16T11:19:01.519Z,31170.56
2023-04-16T11:20:01.627Z,31662.08
2023-04-16T11:21:01.753Z,31662.08
2023-04-16T11:22:01.906Z,32153.6
2023-04-16T11:23:02.091Z,32931.84
2023-04-16T11:24:02.195Z,33116.16
2023-04-16T11:25:02.351Z,32481.28
2023-04-16T11:26:02.547Z,31887.36
2023-04-16T11:27:02.651Z,31129.6
2023-04-16T11:28:02.796Z,30883.84
2023-04-16T11:29:02.979Z,30965.76
2023-04-16T11:30:03.621Z,31293.44
2023-04-16T11:31:03.289Z,31600.64
2023-04-16T11:32:03.442Z,31252.48
2023-04-16T11:33:03.629Z,30638.08
2023-04-16T11:34:03.655Z,30146.56
2023-04-16T11:35:03.869Z,29818.88
2023-04-16T11:36:03.969Z,29327.36
2023-04-16T11:37:04.117Z,29061.12
2023-04-16T11:38:04.233Z,29265.92
2023-04-16T11:39:04.349Z,29614.08
2023-04-16T11:40:04.464Z,30085.12
2023-04-16T11:41:04.639Z,30740.48
2023-04-16T11:42:04.800Z,31416.32
2023-04-16T11:43:04.941Z,32030.72
2023-04-16T11:44:05.073Z,39362.56
2023-04-16T11:45:05.751Z,41103.36
2023-04-16T11:46:13.206Z,42557.44
2023-04-16T11:47:05.536Z,44523.52
2023-04-16T11:48:05.651Z,45219.84
2023-04-16T11:49:05.781Z,44851.2
2023-04-16T11:50:05.938Z,38666.24
2023-04-16T11:51:06.096Z,35389.44
2023-04-16T11:52:06.240Z,38584.32
2023-04-16T11:53:06.431Z,42885.12
2023-04-16T11:54:06.504Z,42065.92
2023-04-16T11:55:06.649Z,40755.2
2023-04-16T11:56:06.805Z,39362.56
2023-04-16T11:57:06.956Z,38748.16
2023-04-16T11:58:07.085Z,38277.12
2023-04-16T11:59:07.344Z,36884.48
2023-04-16T12:00:09.272Z,35123.2
2023-04-16T12:02:07.763Z,42106.88
2023-04-16T12:03:07.991Z,43704.32
2023-04-16T12:04:08.236Z,43909.12
2023-04-16T12:05:08.115Z,42762.24
2023-04-16T12:06:08.225Z,45056
2023-04-16T12:07:08.315Z,44728.32
2023-04-16T12:08:08.460Z,43089.92
2023-04-16T12:09:08.883Z,41164.8
2023-04-16T12:10:08.748Z,39567.36
2023-04-16T12:11:08.877Z,31744
2023-04-16T12:12:08.966Z,33914.88
2023-04-16T12:13:09.084Z,31723.52
2023-04-16T12:14:09.225Z,30187.52
2023-04-16T12:15:09.871Z,28897.28
2023-04-16T12:16:09.531Z,28364.8
2023-04-16T12:17:09.689Z,28549.12
2023-04-16T12:18:09.799Z,30126.08
2023-04-16T12:19:10.097Z,31744
2023-04-16T12:20:10.023Z,35205.12
2023-04-16T12:21:10.136Z,32808.96
2023-04-16T12:22:10.285Z,32563.2
2023-04-16T12:23:10.376Z,36945.92
2023-04-16T12:24:10.513Z,32727.04
2023-04-16T12:25:10.657Z,31252.48
2023-04-16T12:26:11.038Z,29573.12
2023-04-16T12:27:10.950Z,27996.16
2023-04-16T12:28:11.042Z,26378.24
2023-04-16T12:29:11.374Z,24985.6
2023-04-16T12:30:11.856Z,23490.56